X  Blizu METAR Podaci o vazduhoplovstvu     EDVE Braunschweig-Wolfsburg Airport
Temperatura
1°C Temperatura
0°C Tačka Rose
93% Vlaga



Vetar
2 M/S
5 MPS
8 KM/S
4 Čvorovi



70°
ISI
Trenutna situacija

Izmaglica Izmaglica
Vazdušni pritisak 1027.92 (hPa) - 30.35 (inHg)
Vidljivost 2.7 (Milje) - 4.3 (km)
Aerodrom
Aerodromski kod. EDVE

Lokacija: Braunschweig-Wolfsburg Airport
Udaljenost: 35 (km)

Metar:
EDVE 012020Z 07004KT 020V100 4300 BR OVC006 01/00 Q1028

Vreme: 01-12-2022 21:20 CET